sensor_id;sensor_type;location;lat;lon;timestamp;temperature;humidity
46037;DHT22;31769;49.304;8.428;2022-12-18T00:01:22;-3.70;99.90
46037;DHT22;31769;49.304;8.428;2022-12-18T00:04:24;-3.70;99.90
46037;DHT22;31769;49.304;8.428;2022-12-18T00:07:26;-3.70;99.90
46037;DHT22;31769;49.304;8.428;2022-12-18T00:10:28;-3.60;99.90
46037;DHT22;31769;49.304;8.428;2022-12-18T00:13:28;-3.70;99.90
46037;DHT22;31769;49.304;8.428;2022-12-18T00:16:29;-3.60;99.90
46037;DHT22;31769;49.304;8.428;2022-12-18T00:19:33;-3.60;99.90
46037;DHT22;31769;49.304;8.428;2022-12-18T00:22:33;-3.70;99.90
46037;DHT22;31769;49.304;8.428;2022-12-18T00:25:35;-3.70;99.90
46037;DHT22;31769;49.304;8.428;2022-12-18T00:28:36;-3.70;99.90
46037;DHT22;31769;49.304;8.428;2022-12-18T00:31:37;-3.70;99.90
46037;DHT22;31769;49.304;8.428;2022-12-18T00:34:38;-3.80;99.90
46037;DHT22;31769;49.304;8.428;2022-12-18T00:37:39;-3.80;99.90
46037;DHT22;31769;49.304;8.428;2022-12-18T00:40:39;-3.80;99.90
46037;DHT22;31769;49.304;8.428;2022-12-18T00:43:40;-3.80;99.90
46037;DHT22;31769;49.304;8.428;2022-12-18T00:46:42;-3.80;99.90
46037;DHT22;31769;49.304;8.428;2022-12-18T00:49:43;-3.70;99.90
46037;DHT22;31769;49.304;8.428;2022-12-18T00:52:43;-3.60;99.90
46037;DHT22;31769;49.304;8.428;2022-12-18T00:55:47;-3.60;99.90
46037;DHT22;31769;49.304;8.428;2022-12-18T00:58:53;-3.50;99.90
46037;DHT22;31769;49.304;8.428;2022-12-18T01:01:54;-3.60;99.90
46037;DHT22;31769;49.304;8.428;2022-12-18T01:04:55;-3.60;99.90
46037;DHT22;31769;49.304;8.428;2022-12-18T01:07:56;-3.60;99.90
46037;DHT22;31769;49.304;8.428;2022-12-18T01:10:57;-3.60;99.90
46037;DHT22;31769;49.304;8.428;2022-12-18T01:13:59;-3.70;99.90
46037;DHT22;31769;49.304;8.428;2022-12-18T01:17:00;-3.60;99.90
46037;DHT22;31769;49.304;8.428;2022-12-18T01:20:03;-3.50;99.90
46037;DHT22;31769;49.304;8.428;2022-12-18T01:23:04;-3.50;99.90
46037;DHT22;31769;49.304;8.428;2022-12-18T01:26:07;-3.40;99.90
46037;DHT22;31769;49.304;8.428;2022-12-18T01:29:09;-3.40;99.90
46037;DHT22;31769;49.304;8.428;2022-12-18T01:32:10;-3.40;99.90
46037;DHT22;31769;49.304;8.428;2022-12-18T01:35:11;-3.40;99.90
46037;DHT22;31769;49.304;8.428;2022-12-18T01:38:11;-3.40;99.90
46037;DHT22;31769;49.304;8.428;2022-12-18T01:41:13;-3.30;99.90
46037;DHT22;31769;49.304;8.428;2022-12-18T01:51:01;-3.30;99.90
46037;DHT22;31769;49.304;8.428;2022-12-18T01:54:02;-3.40;99.90
46037;DHT22;31769;49.304;8.428;2022-12-18T01:57:03;-3.50;99.90
46037;DHT22;31769;49.304;8.428;2022-12-18T02:00:24;-3.50;99.90
46037;DHT22;31769;49.304;8.428;2022-12-18T02:03:25;-3.50;99.90
46037;DHT22;31769;49.304;8.428;2022-12-18T02:06:34;-3.50;99.90
46037;DHT22;31769;49.304;8.428;2022-12-18T02:10:02;-3.40;99.90
46037;DHT22;31769;49.304;8.428;2022-12-18T02:13:26;-3.50;99.90
46037;DHT22;31769;49.304;8.428;2022-12-18T02:24:45;-3.70;99.90
46037;DHT22;31769;49.304;8.428;2022-12-18T02:27:13;-3.70;99.90
46037;DHT22;31769;49.304;8.428;2022-12-18T02:30:14;-3.70;99.90
46037;DHT22;31769;49.304;8.428;2022-12-18T02:33:16;-3.70;99.90
46037;DHT22;31769;49.304;8.428;2022-12-18T02:36:18;-3.70;99.90
46037;DHT22;31769;49.304;8.428;2022-12-18T02:39:25;-3.70;99.90
46037;DHT22;31769;49.304;8.428;2022-12-18T02:42:36;-3.70;99.90
46037;DHT22;31769;49.304;8.428;2022-12-18T02:45:57;-3.80;99.90
46037;DHT22;31769;49.304;8.428;2022-12-18T02:49:36;-3.90;99.90
46037;DHT22;31769;49.304;8.428;2022-12-18T02:56:03;-4.00;99.90
46037;DHT22;31769;49.304;8.428;2022-12-18T02:59:15;-4.00;99.90
46037;DHT22;31769;49.304;8.428;2022-12-18T03:05:53;-4.10;99.90
46037;DHT22;31769;49.304;8.428;2022-12-18T03:09:04;-4.10;99.90
46037;DHT22;31769;49.304;8.428;2022-12-18T03:12:18;-4.20;99.90
46037;DHT22;31769;49.304;8.428;2022-12-18T03:15:40;-4.10;99.90
46037;DHT22;31769;49.304;8.428;2022-12-18T03:19:02;-4.10;99.90
46037;DHT22;31769;49.304;8.428;2022-12-18T03:22:06;-4.10;99.90
46037;DHT22;31769;49.304;8.428;2022-12-18T03:25:17;-4.10;99.90
46037;DHT22;31769;49.304;8.428;2022-12-18T03:28:21;-4.20;99.90
46037;DHT22;31769;49.304;8.428;2022-12-18T03:31:29;-4.10;99.90
46037;DHT22;31769;49.304;8.428;2022-12-18T03:34:34;-4.10;99.90
46037;DHT22;31769;49.304;8.428;2022-12-18T03:37:39;-4.20;99.90
46037;DHT22;31769;49.304;8.428;2022-12-18T03:48:46;-4.00;99.90
46037;DHT22;31769;49.304;8.428;2022-12-18T03:52:13;-4.10;99.90
46037;DHT22;31769;49.304;8.428;2022-12-18T03:55:19;-4.10;99.90
46037;DHT22;31769;49.304;8.428;2022-12-18T03:58:26;-4.10;99.90
46037;DHT22;31769;49.304;8.428;2022-12-18T04:01:42;-4.00;99.90
46037;DHT22;31769;49.304;8.428;2022-12-18T04:04:48;-3.90;99.90
46037;DHT22;31769;49.304;8.428;2022-12-18T04:07:52;-4.00;99.90
46037;DHT22;31769;49.304;8.428;2022-12-18T04:10:55;-3.90;99.90
46037;DHT22;31769;49.304;8.428;2022-12-18T04:13:57;-4.00;99.90
46037;DHT22;31769;49.304;8.428;2022-12-18T04:16:58;-4.00;99.90
46037;DHT22;31769;49.304;8.428;2022-12-18T04:20:05;-4.00;99.90
46037;DHT22;31769;49.304;8.428;2022-12-18T04:23:06;-4.10;99.90
46037;DHT22;31769;49.304;8.428;2022-12-18T04:26:07;-4.10;99.90
46037;DHT22;31769;49.304;8.428;2022-12-18T04:29:17;-4.20;99.90
46037;DHT22;31769;49.304;8.428;2022-12-18T04:32:18;-4.20;99.90
46037;DHT22;31769;49.304;8.428;2022-12-18T04:35:19;-4.20;99.90
46037;DHT22;31769;49.304;8.428;2022-12-18T04:38:20;-4.10;99.90
46037;DHT22;31769;49.304;8.428;2022-12-18T04:41:25;-4.20;99.90
46037;DHT22;31769;49.304;8.428;2022-12-18T04:44:27;-4.30;99.90
46037;DHT22;31769;49.304;8.428;2022-12-18T04:47:28;-4.30;99.90
46037;DHT22;31769;49.304;8.428;2022-12-18T04:50:29;-4.40;99.90
46037;DHT22;31769;49.304;8.428;2022-12-18T04:53:30;-4.40;99.90
46037;DHT22;31769;49.304;8.428;2022-12-18T04:56:32;-4.40;99.90
46037;DHT22;31769;49.304;8.428;2022-12-18T04:59:32;-4.30;99.90
46037;DHT22;31769;49.304;8.428;2022-12-18T05:02:33;-4.40;99.90
46037;DHT22;31769;49.304;8.428;2022-12-18T05:05:37;-4.30;99.90
46037;DHT22;31769;49.304;8.428;2022-12-18T05:08:37;-6.00;99.90
46037;DHT22;31769;49.304;8.428;2022-12-18T05:11:38;-4.30;99.90
46037;DHT22;31769;49.304;8.428;2022-12-18T05:14:39;-4.50;99.90
46037;DHT22;31769;49.304;8.428;2022-12-18T05:17:40;-4.40;99.90
46037;DHT22;31769;49.304;8.428;2022-12-18T05:20:40;-4.40;99.90
46037;DHT22;31769;49.304;8.428;2022-12-18T05:23:41;-4.60;99.90
46037;DHT22;31769;49.304;8.428;2022-12-18T05:26:42;-4.50;99.90
46037;DHT22;31769;49.304;8.428;2022-12-18T05:29:42;-4.90;99.90
46037;DHT22;31769;49.304;8.428;2022-12-18T05:32:43;-4.60;99.90
46037;DHT22;31769;49.304;8.428;2022-12-18T05:35:44;-3.30;99.90
46037;DHT22;31769;49.304;8.428;2022-12-18T05:38:45;-4.70;99.90
46037;DHT22;31769;49.304;8.428;2022-12-18T05:41:45;-4.60;99.90
46037;DHT22;31769;49.304;8.428;2022-12-18T05:44:46;-4.60;99.90
46037;DHT22;31769;49.304;8.428;2022-12-18T05:47:47;-4.80;99.90
46037;DHT22;31769;49.304;8.428;2022-12-18T05:50:48;-4.40;99.90
46037;DHT22;31769;49.304;8.428;2022-12-18T05:53:49;-4.60;99.90
46037;DHT22;31769;49.304;8.428;2022-12-18T05:56:50;-4.70;99.90
46037;DHT22;31769;49.304;8.428;2022-12-18T05:59:50;-4.70;99.90
46037;DHT22;31769;49.304;8.428;2022-12-18T06:02:51;-4.80;99.90
46037;DHT22;31769;49.304;8.428;2022-12-18T06:05:52;-4.70;99.90
46037;DHT22;31769;49.304;8.428;2022-12-18T06:08:54;-4.80;99.90
46037;DHT22;31769;49.304;8.428;2022-12-18T06:11:54;-4.80;99.90
46037;DHT22;31769;49.304;8.428;2022-12-18T06:14:55;-4.80;99.90
46037;DHT22;31769;49.304;8.428;2022-12-18T06:17:56;-4.80;99.90
46037;DHT22;31769;49.304;8.428;2022-12-18T06:20:57;-5.00;99.90
46037;DHT22;31769;49.304;8.428;2022-12-18T06:23:59;-5.00;99.90
46037;DHT22;31769;49.304;8.428;2022-12-18T06:26:59;-5.40;99.90
46037;DHT22;31769;49.304;8.428;2022-12-18T06:30:01;-5.10;99.90
46037;DHT22;31769;49.304;8.428;2022-12-18T06:33:02;-5.10;99.90
46037;DHT22;31769;49.304;8.428;2022-12-18T06:36:08;-5.10;99.90
46037;DHT22;31769;49.304;8.428;2022-12-18T06:39:09;-5.10;99.90
46037;DHT22;31769;49.304;8.428;2022-12-18T06:42:10;-5.00;99.90
46037;DHT22;31769;49.304;8.428;2022-12-18T06:45:10;-5.00;99.90
46037;DHT22;31769;49.304;8.428;2022-12-18T06:48:11;-5.10;99.90
46037;DHT22;31769;49.304;8.428;2022-12-18T06:51:16;-5.10;99.90
46037;DHT22;31769;49.304;8.428;2022-12-18T06:54:17;-5.10;99.90
46037;DHT22;31769;49.304;8.428;2022-12-18T06:57:17;-5.10;99.90
46037;DHT22;31769;49.304;8.428;2022-12-18T07:00:18;-5.00;99.90
46037;DHT22;31769;49.304;8.428;2022-12-18T07:03:19;-5.10;99.90
46037;DHT22;31769;49.304;8.428;2022-12-18T07:06:21;-5.10;99.90
46037;DHT22;31769;49.304;8.428;2022-12-18T07:09:22;-5.10;99.90
46037;DHT22;31769;49.304;8.428;2022-12-18T07:12:23;-5.10;99.90
46037;DHT22;31769;49.304;8.428;2022-12-18T07:15:24;-5.10;99.90
46037;DHT22;31769;49.304;8.428;2022-12-18T07:18:25;-5.20;99.90
46037;DHT22;31769;49.304;8.428;2022-12-18T07:21:25;-5.20;99.90
46037;DHT22;31769;49.304;8.428;2022-12-18T07:24:26;-5.20;99.90
46037;DHT22;31769;49.304;8.428;2022-12-18T07:27:27;-5.20;99.90
46037;DHT22;31769;49.304;8.428;2022-12-18T07:30:28;-5.20;99.90
46037;DHT22;31769;49.304;8.428;2022-12-18T07:33:28;-5.10;99.90
46037;DHT22;31769;49.304;8.428;2022-12-18T07:36:29;-5.00;99.90
46037;DHT22;31769;49.304;8.428;2022-12-18T07:39:30;-5.00;99.90
46037;DHT22;31769;49.304;8.428;2022-12-18T07:42:31;-4.90;99.90
46037;DHT22;31769;49.304;8.428;2022-12-18T07:45:31;-4.80;99.90
46037;DHT22;31769;49.304;8.428;2022-12-18T07:48:32;-4.70;99.90
46037;DHT22;31769;49.304;8.428;2022-12-18T07:51:33;-4.70;99.90
46037;DHT22;31769;49.304;8.428;2022-12-18T07:54:33;-4.60;99.90
46037;DHT22;31769;49.304;8.428;2022-12-18T07:57:34;-4.60;99.90
46037;DHT22;31769;49.304;8.428;2022-12-18T08:00:35;-4.50;99.90
46037;DHT22;31769;49.304;8.428;2022-12-18T08:03:36;-4.40;99.90
46037;DHT22;31769;49.304;8.428;2022-12-18T08:06:37;-4.30;99.90
46037;DHT22;31769;49.304;8.428;2022-12-18T08:09:38;-4.20;99.90
46037;DHT22;31769;49.304;8.428;2022-12-18T08:12:39;-4.10;99.90
46037;DHT22;31769;49.304;8.428;2022-12-18T08:15:40;-4.00;99.90
46037;DHT22;31769;49.304;8.428;2022-12-18T08:18:40;-3.90;99.90
46037;DHT22;31769;49.304;8.428;2022-12-18T08:21:41;-3.80;99.90
46037;DHT22;31769;49.304;8.428;2022-12-18T08:24:42;-3.80;99.90
46037;DHT22;31769;49.304;8.428;2022-12-18T08:27:43;-3.70;99.90
46037;DHT22;31769;49.304;8.428;2022-12-18T08:30:43;-3.60;99.90
46037;DHT22;31769;49.304;8.428;2022-12-18T08:33:44;-3.50;99.90
46037;DHT22;31769;49.304;8.428;2022-12-18T08:36:45;-3.40;99.90
46037;DHT22;31769;49.304;8.428;2022-12-18T08:39:46;-3.20;99.90
46037;DHT22;31769;49.304;8.428;2022-12-18T08:42:46;-3.10;99.90
46037;DHT22;31769;49.304;8.428;2022-12-18T08:46:06;-3.00;99.90
46037;DHT22;31769;49.304;8.428;2022-12-18T08:49:08;-2.90;99.90
46037;DHT22;31769;49.304;8.428;2022-12-18T08:52:09;-2.80;99.90
46037;DHT22;31769;49.304;8.428;2022-12-18T08:55:10;-2.80;99.90
46037;DHT22;31769;49.304;8.428;2022-12-18T08:58:10;-2.70;99.90
46037;DHT22;31769;49.304;8.428;2022-12-18T09:01:12;-2.60;99.90
46037;DHT22;31769;49.304;8.428;2022-12-18T09:04:14;-2.50;99.90
46037;DHT22;31769;49.304;8.428;2022-12-18T09:07:16;-2.50;99.90
46037;DHT22;31769;49.304;8.428;2022-12-18T09:10:16;-2.40;99.90
46037;DHT22;31769;49.304;8.428;2022-12-18T09:13:18;-2.30;99.90
46037;DHT22;31769;49.304;8.428;2022-12-18T09:16:19;-2.30;99.90
46037;DHT22;31769;49.304;8.428;2022-12-18T09:19:20;-2.20;99.90
46037;DHT22;31769;49.304;8.428;2022-12-18T09:22:21;-2.10;99.90
46037;DHT22;31769;49.304;8.428;2022-12-18T09:25:22;-2.00;99.90
46037;DHT22;31769;49.304;8.428;2022-12-18T09:28:22;-2.00;99.90
46037;DHT22;31769;49.304;8.428;2022-12-18T09:31:24;-1.90;99.90
46037;DHT22;31769;49.304;8.428;2022-12-18T09:34:25;-1.80;99.90
46037;DHT22;31769;49.304;8.428;2022-12-18T09:37:25;-1.80;99.90
46037;DHT22;31769;49.304;8.428;2022-12-18T09:40:30;-1.70;99.90
46037;DHT22;31769;49.304;8.428;2022-12-18T09:43:45;-1.70;99.90
46037;DHT22;31769;49.304;8.428;2022-12-18T09:50:06;-1.30;99.90
46037;DHT22;31769;49.304;8.428;2022-12-18T09:53:20;-1.10;99.90
46037;DHT22;31769;49.304;8.428;2022-12-18T09:56:23;-1.00;99.90
46037;DHT22;31769;49.304;8.428;2022-12-18T09:59:36;-0.90;99.90
46037;DHT22;31769;49.304;8.428;2022-12-18T10:02:38;-0.80;99.90
46037;DHT22;31769;49.304;8.428;2022-12-18T10:06:00;-0.70;99.90
46037;DHT22;31769;49.304;8.428;2022-12-18T10:12:34;-0.30;99.90
46037;DHT22;31769;49.304;8.428;2022-12-18T10:16:19;0.00;99.90
46037;DHT22;31769;49.304;8.428;2022-12-18T10:23:01;0.60;99.90
46037;DHT22;31769;49.304;8.428;2022-12-18T10:26:06;1.00;99.90
46037;DHT22;31769;49.304;8.428;2022-12-18T10:29:12;1.30;99.90
46037;DHT22;31769;49.304;8.428;2022-12-18T10:32:22;1.40;99.90
46037;DHT22;31769;49.304;8.428;2022-12-18T10:35:26;1.50;99.90
46037;DHT22;31769;49.304;8.428;2022-12-18T10:38:29;1.60;99.90
46037;DHT22;31769;49.304;8.428;2022-12-18T10:41:30;1.80;99.90
46037;DHT22;31769;49.304;8.428;2022-12-18T10:44:32;2.00;99.90
46037;DHT22;31769;49.304;8.428;2022-12-18T10:47:33;2.00;99.90
46037;DHT22;31769;49.304;8.428;2022-12-18T10:50:36;2.10;99.90
46037;DHT22;31769;49.304;8.428;2022-12-18T10:53:40;2.10;99.90
46037;DHT22;31769;49.304;8.428;2022-12-18T10:56:41;2.10;99.90
46037;DHT22;31769;49.304;8.428;2022-12-18T10:59:56;2.30;99.90
46037;DHT22;31769;49.304;8.428;2022-12-18T11:02:57;2.40;99.90
46037;DHT22;31769;49.304;8.428;2022-12-18T11:06:11;2.60;99.90
46037;DHT22;31769;49.304;8.428;2022-12-18T11:09:26;3.10;99.90
46037;DHT22;31769;49.304;8.428;2022-12-18T11:12:28;3.60;99.90
46037;DHT22;31769;49.304;8.428;2022-12-18T11:15:30;4.20;99.90
46037;DHT22;31769;49.304;8.428;2022-12-18T11:18:35;4.70;99.90
46037;DHT22;31769;49.304;8.428;2022-12-18T11:21:41;5.00;99.90
46037;DHT22;31769;49.304;8.428;2022-12-18T11:24:42;5.40;99.90
46037;DHT22;31769;49.304;8.428;2022-12-18T11:27:52;5.70;99.90
46037;DHT22;31769;49.304;8.428;2022-12-18T11:31:18;5.90;99.80
46037;DHT22;31769;49.304;8.428;2022-12-18T11:34:27;5.60;96.90
46037;DHT22;31769;49.304;8.428;2022-12-18T11:37:29;4.50;99.90
46037;DHT22;31769;49.304;8.428;2022-12-18T11:43:54;3.20;99.90
46037;DHT22;31769;49.304;8.428;2022-12-18T11:47:01;3.80;99.90
46037;DHT22;31769;49.304;8.428;2022-12-18T11:50:16;3.70;99.90
46037;DHT22;31769;49.304;8.428;2022-12-18T11:53:18;4.50;99.90
46037;DHT22;31769;49.304;8.428;2022-12-18T11:56:32;4.30;99.90
46037;DHT22;31769;49.304;8.428;2022-12-18T12:03:27;6.20;97.70
46037;DHT22;31769;49.304;8.428;2022-12-18T12:13:31;6.10;96.20
46037;DHT22;31769;49.304;8.428;2022-12-18T12:20:11;5.80;97.00
46037;DHT22;31769;49.304;8.428;2022-12-18T12:23:30;5.50;97.30
46037;DHT22;31769;49.304;8.428;2022-12-18T12:30:22;6.20;96.80
46037;DHT22;31769;49.304;8.428;2022-12-18T12:33:32;5.60;96.10
46037;DHT22;31769;49.304;8.428;2022-12-18T12:40:00;4.50;99.10
46037;DHT22;31769;49.304;8.428;2022-12-18T12:43:10;4.50;98.80
46037;DHT22;31769;49.304;8.428;2022-12-18T12:46:17;4.10;99.90
46037;DHT22;31769;49.304;8.428;2022-12-18T12:49:21;3.40;99.90
46037;DHT22;31769;49.304;8.428;2022-12-18T12:52:39;2.90;99.90
46037;DHT22;31769;49.304;8.428;2022-12-18T12:55:42;2.70;99.90
46037;DHT22;31769;49.304;8.428;2022-12-18T13:05:26;3.50;99.90
46037;DHT22;31769;49.304;8.428;2022-12-18T13:08:34;3.10;99.90
46037;DHT22;31769;49.304;8.428;2022-12-18T13:11:51;2.70;99.90
46037;DHT22;31769;49.304;8.428;2022-12-18T13:15:21;2.70;99.90
46037;DHT22;31769;49.304;8.428;2022-12-18T13:18:24;2.70;99.90
46037;DHT22;31769;49.304;8.428;2022-12-18T13:21:28;2.50;99.90
46037;DHT22;31769;49.304;8.428;2022-12-18T13:24:31;2.40;99.90
46037;DHT22;31769;49.304;8.428;2022-12-18T13:30:50;1.50;99.90
46037;DHT22;31769;49.304;8.428;2022-12-18T13:47:37;1.50;99.90
46037;DHT22;31769;49.304;8.428;2022-12-18T13:50:39;1.30;99.90
46037;DHT22;31769;49.304;8.428;2022-12-18T13:53:44;1.20;99.90
46037;DHT22;31769;49.304;8.428;2022-12-18T13:56:48;0.90;99.90
46037;DHT22;31769;49.304;8.428;2022-12-18T13:59:49;0.60;99.90
46037;DHT22;31769;49.304;8.428;2022-12-18T14:02:50;0.40;99.90
46037;DHT22;31769;49.304;8.428;2022-12-18T14:06:03;0.60;99.90
46037;DHT22;31769;49.304;8.428;2022-12-18T14:09:05;0.60;99.90
46037;DHT22;31769;49.304;8.428;2022-12-18T14:12:17;0.60;99.90
46037;DHT22;31769;49.304;8.428;2022-12-18T14:15:42;0.60;99.90
46037;DHT22;31769;49.304;8.428;2022-12-18T14:18:56;0.50;99.90
46037;DHT22;31769;49.304;8.428;2022-12-18T14:21:58;0.40;99.90
46037;DHT22;31769;49.304;8.428;2022-12-18T14:28:14;0.20;99.90
46037;DHT22;31769;49.304;8.428;2022-12-18T14:31:21;0.20;99.90
46037;DHT22;31769;49.304;8.428;2022-12-18T14:34:26;0.10;99.90
46037;DHT22;31769;49.304;8.428;2022-12-18T14:37:27;0.10;99.90
46037;DHT22;31769;49.304;8.428;2022-12-18T14:40:28;0.00;99.90
46037;DHT22;31769;49.304;8.428;2022-12-18T14:43:32;-0.10;99.90
46037;DHT22;31769;49.304;8.428;2022-12-18T14:46:36;-0.20;99.90
46037;DHT22;31769;49.304;8.428;2022-12-18T14:49:37;-0.30;99.90
46037;DHT22;31769;49.304;8.428;2022-12-18T14:52:38;-0.40;99.90
46037;DHT22;31769;49.304;8.428;2022-12-18T14:55:46;-0.40;99.90
46037;DHT22;31769;49.304;8.428;2022-12-18T14:58:59;-0.70;99.90
46037;DHT22;31769;49.304;8.428;2022-12-18T15:02:25;-0.80;99.90
46037;DHT22;31769;49.304;8.428;2022-12-18T15:05:31;-0.90;99.90
46037;DHT22;31769;49.304;8.428;2022-12-18T15:08:36;-1.10;99.90
46037;DHT22;31769;49.304;8.428;2022-12-18T15:14:41;-1.30;99.90
46037;DHT22;31769;49.304;8.428;2022-12-18T15:17:42;-1.30;99.90
46037;DHT22;31769;49.304;8.428;2022-12-18T15:20:54;-1.30;99.90
46037;DHT22;31769;49.304;8.428;2022-12-18T15:23:59;-1.40;99.90
46037;DHT22;31769;49.304;8.428;2022-12-18T15:27:00;-1.40;99.90
46037;DHT22;31769;49.304;8.428;2022-12-18T15:33:23;-1.40;99.90
46037;DHT22;31769;49.304;8.428;2022-12-18T15:36:25;-1.30;99.90
46037;DHT22;31769;49.304;8.428;2022-12-18T15:39:26;-1.20;99.90
46037;DHT22;31769;49.304;8.428;2022-12-18T15:42:26;-1.20;99.90
46037;DHT22;31769;49.304;8.428;2022-12-18T15:45:45;-1.30;99.90
46037;DHT22;31769;49.304;8.428;2022-12-18T15:48:51;-1.40;99.90
46037;DHT22;31769;49.304;8.428;2022-12-18T15:51:58;-1.50;99.90
46037;DHT22;31769;49.304;8.428;2022-12-18T15:54:59;-1.50;99.90
46037;DHT22;31769;49.304;8.428;2022-12-18T15:58:18;-1.50;99.90
46037;DHT22;31769;49.304;8.428;2022-12-18T16:01:25;-1.40;99.90
46037;DHT22;31769;49.304;8.428;2022-12-18T16:04:26;-1.30;99.90
46037;DHT22;31769;49.304;8.428;2022-12-18T16:07:27;-1.20;99.90
46037;DHT22;31769;49.304;8.428;2022-12-18T16:10:28;-1.10;99.90
46037;DHT22;31769;49.304;8.428;2022-12-18T16:13:29;-1.00;99.90
46037;DHT22;31769;49.304;8.428;2022-12-18T16:16:29;-1.00;99.90
46037;DHT22;31769;49.304;8.428;2022-12-18T16:19:30;-0.90;99.90
46037;DHT22;31769;49.304;8.428;2022-12-18T16:22:31;-0.80;99.90
46037;DHT22;31769;49.304;8.428;2022-12-18T16:25:32;-0.70;99.90
46037;DHT22;31769;49.304;8.428;2022-12-18T16:28:32;-0.70;99.90
46037;DHT22;31769;49.304;8.428;2022-12-18T16:31:33;-0.60;99.90
46037;DHT22;31769;49.304;8.428;2022-12-18T16:34:34;-0.60;99.90
46037;DHT22;31769;49.304;8.428;2022-12-18T16:37:35;-0.60;99.90
46037;DHT22;31769;49.304;8.428;2022-12-18T16:40:37;-0.50;99.90
46037;DHT22;31769;49.304;8.428;2022-12-18T16:43:59;-0.50;99.90
46037;DHT22;31769;49.304;8.428;2022-12-18T16:47:00;-0.50;99.90
46037;DHT22;31769;49.304;8.428;2022-12-18T16:50:03;-0.50;99.90
46037;DHT22;31769;49.304;8.428;2022-12-18T16:53:04;-0.50;99.90
46037;DHT22;31769;49.304;8.428;2022-12-18T16:56:04;-0.50;99.90
46037;DHT22;31769;49.304;8.428;2022-12-18T16:59:05;-0.50;99.90
46037;DHT22;31769;49.304;8.428;2022-12-18T17:02:13;-0.50;99.90
46037;DHT22;31769;49.304;8.428;2022-12-18T17:05:15;-0.50;99.90
46037;DHT22;31769;49.304;8.428;2022-12-18T17:08:15;-0.50;99.90
46037;DHT22;31769;49.304;8.428;2022-12-18T17:11:16;-0.50;99.90
46037;DHT22;31769;49.304;8.428;2022-12-18T17:14:20;-0.40;99.90
46037;DHT22;31769;49.304;8.428;2022-12-18T17:17:21;-0.50;99.90
46037;DHT22;31769;49.304;8.428;2022-12-18T17:20:22;-0.50;99.90
46037;DHT22;31769;49.304;8.428;2022-12-18T17:23:22;-0.30;99.90
46037;DHT22;31769;49.304;8.428;2022-12-18T17:26:23;-0.50;99.90
46037;DHT22;31769;49.304;8.428;2022-12-18T17:29:24;-0.50;99.90
46037;DHT22;31769;49.304;8.428;2022-12-18T17:32:25;-0.50;99.90
46037;DHT22;31769;49.304;8.428;2022-12-18T17:35:25;-0.50;99.90
46037;DHT22;31769;49.304;8.428;2022-12-18T17:38:26;-0.50;99.90
46037;DHT22;31769;49.304;8.428;2022-12-18T17:44:35;-0.50;99.90
46037;DHT22;31769;49.304;8.428;2022-12-18T17:47:36;-0.50;99.90
46037;DHT22;31769;49.304;8.428;2022-12-18T17:50:37;-0.50;99.90
46037;DHT22;31769;49.304;8.428;2022-12-18T17:53:38;-0.50;99.90
46037;DHT22;31769;49.304;8.428;2022-12-18T17:56:39;-0.40;99.90
46037;DHT22;31769;49.304;8.428;2022-12-18T17:59:40;-0.40;99.90
46037;DHT22;31769;49.304;8.428;2022-12-18T18:02:41;-0.40;99.90
46037;DHT22;31769;49.304;8.428;2022-12-18T18:05:41;-0.40;99.90
46037;DHT22;31769;49.304;8.428;2022-12-18T18:08:42;-0.40;99.90
46037;DHT22;31769;49.304;8.428;2022-12-18T18:11:43;-0.40;99.90
46037;DHT22;31769;49.304;8.428;2022-12-18T18:15:03;-0.40;99.90
46037;DHT22;31769;49.304;8.428;2022-12-18T18:18:04;-0.40;99.90
46037;DHT22;31769;49.304;8.428;2022-12-18T18:21:08;-0.40;99.90
46037;DHT22;31769;49.304;8.428;2022-12-18T18:24:11;-0.50;99.90
46037;DHT22;31769;49.304;8.428;2022-12-18T18:27:12;-0.50;99.90
46037;DHT22;31769;49.304;8.428;2022-12-18T18:30:13;-0.50;99.90
46037;DHT22;31769;49.304;8.428;2022-12-18T18:33:13;-0.50;99.90
46037;DHT22;31769;49.304;8.428;2022-12-18T18:36:14;-0.40;99.90
46037;DHT22;31769;49.304;8.428;2022-12-18T18:39:15;-0.40;99.90
46037;DHT22;31769;49.304;8.428;2022-12-18T18:42:15;-0.40;99.90
46037;DHT22;31769;49.304;8.428;2022-12-18T18:45:16;-0.30;99.90
46037;DHT22;31769;49.304;8.428;2022-12-18T18:48:17;-0.20;99.90
46037;DHT22;31769;49.304;8.428;2022-12-18T18:51:18;-0.20;99.90
46037;DHT22;31769;49.304;8.428;2022-12-18T18:54:19;-0.20;99.90
46037;DHT22;31769;49.304;8.428;2022-12-18T18:57:20;-0.10;99.90
46037;DHT22;31769;49.304;8.428;2022-12-18T19:00:21;-0.10;99.90
46037;DHT22;31769;49.304;8.428;2022-12-18T19:03:22;0.00;99.90
46037;DHT22;31769;49.304;8.428;2022-12-18T19:06:26;0.00;99.90
46037;DHT22;31769;49.304;8.428;2022-12-18T19:09:27;-0.10;99.90
46037;DHT22;31769;49.304;8.428;2022-12-18T19:12:28;0.00;99.90
46037;DHT22;31769;49.304;8.428;2022-12-18T19:15:47;-0.10;99.90
46037;DHT22;31769;49.304;8.428;2022-12-18T19:18:48;0.00;99.90
46037;DHT22;31769;49.304;8.428;2022-12-18T19:21:49;0.00;99.90
46037;DHT22;31769;49.304;8.428;2022-12-18T19:24:50;-0.10;99.90
46037;DHT22;31769;49.304;8.428;2022-12-18T19:27:51;0.10;99.90
46037;DHT22;31769;49.304;8.428;2022-12-18T19:30:52;0.00;99.90
46037;DHT22;31769;49.304;8.428;2022-12-18T19:33:54;-0.10;99.90
46037;DHT22;31769;49.304;8.428;2022-12-18T19:36:55;0.00;99.90
46037;DHT22;31769;49.304;8.428;2022-12-18T19:39:56;0.00;99.90
46037;DHT22;31769;49.304;8.428;2022-12-18T19:42:57;0.20;99.90
46037;DHT22;31769;49.304;8.428;2022-12-18T19:45:58;0.00;99.90
46037;DHT22;31769;49.304;8.428;2022-12-18T19:48:59;-0.10;99.90
46037;DHT22;31769;49.304;8.428;2022-12-18T19:52:00;0.20;99.90
46037;DHT22;31769;49.304;8.428;2022-12-18T19:55:02;0.90;99.90
46037;DHT22;31769;49.304;8.428;2022-12-18T19:58:03;0.20;99.90
46037;DHT22;31769;49.304;8.428;2022-12-18T20:01:04;0.40;99.90
46037;DHT22;31769;49.304;8.428;2022-12-18T20:04:05;0.20;99.90
46037;DHT22;31769;49.304;8.428;2022-12-18T20:07:06;-1.20;99.90
46037;DHT22;31769;49.304;8.428;2022-12-18T20:10:09;0.10;99.90
46037;DHT22;31769;49.304;8.428;2022-12-18T20:13:12;0.10;99.90
46037;DHT22;31769;49.304;8.428;2022-12-18T20:16:13;0.10;99.90
46037;DHT22;31769;49.304;8.428;2022-12-18T20:19:14;0.10;99.90
46037;DHT22;31769;49.304;8.428;2022-12-18T20:22:15;0.20;99.90
46037;DHT22;31769;49.304;8.428;2022-12-18T20:25:17;0.20;99.90
46037;DHT22;31769;49.304;8.428;2022-12-18T20:28:18;0.20;99.90
46037;DHT22;31769;49.304;8.428;2022-12-18T20:31:19;0.00;99.90
46037;DHT22;31769;49.304;8.428;2022-12-18T20:38:42;-0.20;99.90
46037;DHT22;31769;49.304;8.428;2022-12-18T20:41:43;-0.20;99.90
46037;DHT22;31769;49.304;8.428;2022-12-18T20:44:45;-0.20;99.90
46037;DHT22;31769;49.304;8.428;2022-12-18T20:47:45;-0.10;99.90
46037;DHT22;31769;49.304;8.428;2022-12-18T20:51:18;-0.10;99.90
46037;DHT22;31769;49.304;8.428;2022-12-18T20:54:20;-0.10;99.90
46037;DHT22;31769;49.304;8.428;2022-12-18T20:57:21;0.00;99.90
46037;DHT22;31769;49.304;8.428;2022-12-18T21:00:22;-0.30;99.90
46037;DHT22;31769;49.304;8.428;2022-12-18T21:03:23;-0.70;99.90
46037;DHT22;31769;49.304;8.428;2022-12-18T21:06:23;-0.60;99.90
46037;DHT22;31769;49.304;8.428;2022-12-18T21:09:24;-0.50;99.90
46037;DHT22;31769;49.304;8.428;2022-12-18T21:12:25;-0.60;99.90